sensor_id;sensor_type;location;lat;lon;timestamp;temperature;humidity
81266;DHT22;70748;52.510;13.410;2023-10-19T00:02:05;8.80;69.90
81266;DHT22;70748;52.510;13.410;2023-10-19T00:04:31;8.80;70.50
81266;DHT22;70748;52.510;13.410;2023-10-19T00:07:00;8.80;70.30
81266;DHT22;70748;52.510;13.410;2023-10-19T00:09:26;8.90;70.20
81266;DHT22;70748;52.510;13.410;2023-10-19T00:11:57;8.90;70.00
81266;DHT22;70748;52.510;13.410;2023-10-19T00:14:23;8.80;70.00
81266;DHT22;70748;52.510;13.410;2023-10-19T00:16:51;8.80;69.90
81266;DHT22;70748;52.510;13.410;2023-10-19T00:19:25;8.80;69.90
81266;DHT22;70748;52.510;13.410;2023-10-19T00:21:53;8.80;70.10
81266;DHT22;70748;52.510;13.410;2023-10-19T00:24:34;8.80;70.00
81266;DHT22;70748;52.510;13.410;2023-10-19T00:26:59;8.90;70.10
81266;DHT22;70748;52.510;13.410;2023-10-19T00:29:31;8.90;70.20
81266;DHT22;70748;52.510;13.410;2023-10-19T00:31:59;8.80;69.80
81266;DHT22;70748;52.510;13.410;2023-10-19T00:34:27;8.80;70.30
81266;DHT22;70748;52.510;13.410;2023-10-19T00:36:54;8.70;70.50
81266;DHT22;70748;52.510;13.410;2023-10-19T00:39:22;8.70;70.70
81266;DHT22;70748;52.510;13.410;2023-10-19T00:41:49;8.70;70.60
81266;DHT22;70748;52.510;13.410;2023-10-19T00:44:16;8.50;71.30
81266;DHT22;70748;52.510;13.410;2023-10-19T00:46:48;8.60;71.00
81266;DHT22;70748;52.510;13.410;2023-10-19T00:49:27;8.70;71.20
81266;DHT22;70748;52.510;13.410;2023-10-19T00:51:56;8.70;70.90
81266;DHT22;70748;52.510;13.410;2023-10-19T00:54:38;8.70;70.80
81266;DHT22;70748;52.510;13.410;2023-10-19T00:57:19;8.80;70.40
81266;DHT22;70748;52.510;13.410;2023-10-19T00:59:46;8.70;70.90
81266;DHT22;70748;52.510;13.410;2023-10-19T01:02:20;8.70;70.70
81266;DHT22;70748;52.510;13.410;2023-10-19T01:04:56;8.70;70.80
81266;DHT22;70748;52.510;13.410;2023-10-19T01:07:28;8.70;70.80
81266;DHT22;70748;52.510;13.410;2023-10-19T01:09:59;8.60;70.70
81266;DHT22;70748;52.510;13.410;2023-10-19T01:12:26;8.60;71.40
81266;DHT22;70748;52.510;13.410;2023-10-19T01:15:06;8.70;71.00
81266;DHT22;70748;52.510;13.410;2023-10-19T01:17:37;8.70;70.70
81266;DHT22;70748;52.510;13.410;2023-10-19T01:20:13;8.70;70.90
81266;DHT22;70748;52.510;13.410;2023-10-19T01:23:00;8.60;71.20
81266;DHT22;70748;52.510;13.410;2023-10-19T01:25:42;8.70;70.90
81266;DHT22;70748;52.510;13.410;2023-10-19T01:28:15;8.70;70.80
81266;DHT22;70748;52.510;13.410;2023-10-19T01:30:44;8.70;70.80
81266;DHT22;70748;52.510;13.410;2023-10-19T01:33:10;8.80;70.60
81266;DHT22;70748;52.510;13.410;2023-10-19T01:35:41;8.80;70.50
81266;DHT22;70748;52.510;13.410;2023-10-19T01:38:25;8.70;71.00
81266;DHT22;70748;52.510;13.410;2023-10-19T01:40:51;8.70;70.80
81266;DHT22;70748;52.510;13.410;2023-10-19T01:43:17;8.80;70.70
81266;DHT22;70748;52.510;13.410;2023-10-19T01:45:52;8.80;70.10
81266;DHT22;70748;52.510;13.410;2023-10-19T01:48:20;8.80;70.50
81266;DHT22;70748;52.510;13.410;2023-10-19T01:50:48;8.80;70.70
81266;DHT22;70748;52.510;13.410;2023-10-19T01:53:16;8.90;70.30
81266;DHT22;70748;52.510;13.410;2023-10-19T01:55:44;8.80;70.40
81266;DHT22;70748;52.510;13.410;2023-10-19T01:58:12;8.70;70.60
81266;DHT22;70748;52.510;13.410;2023-10-19T02:00:40;8.70;71.20
81266;DHT22;70748;52.510;13.410;2023-10-19T02:03:08;8.50;71.60
81266;DHT22;70748;52.510;13.410;2023-10-19T02:05:34;8.50;71.60
81266;DHT22;70748;52.510;13.410;2023-10-19T02:08:06;8.60;71.20
81266;DHT22;70748;52.510;13.410;2023-10-19T02:10:34;8.70;70.70
81266;DHT22;70748;52.510;13.410;2023-10-19T02:13:00;8.70;70.60
81266;DHT22;70748;52.510;13.410;2023-10-19T02:15:26;8.70;70.60
81266;DHT22;70748;52.510;13.410;2023-10-19T02:17:52;8.70;70.90
81266;DHT22;70748;52.510;13.410;2023-10-19T02:20:20;8.70;70.90
81266;DHT22;70748;52.510;13.410;2023-10-19T02:22:49;8.50;71.90
81266;DHT22;70748;52.510;13.410;2023-10-19T02:25:17;8.60;71.70
81266;DHT22;70748;52.510;13.410;2023-10-19T02:27:43;8.70;70.90
81266;DHT22;70748;52.510;13.410;2023-10-19T02:30:10;8.80;70.20
81266;DHT22;70748;52.510;13.410;2023-10-19T02:32:37;8.90;70.30
81266;DHT22;70748;52.510;13.410;2023-10-19T02:35:02;8.90;69.70
81266;DHT22;70748;52.510;13.410;2023-10-19T02:37:28;8.70;70.40
81266;DHT22;70748;52.510;13.410;2023-10-19T02:39:54;8.60;70.90
81266;DHT22;70748;52.510;13.410;2023-10-19T02:42:20;8.60;71.30
81266;DHT22;70748;52.510;13.410;2023-10-19T02:44:47;8.70;70.80
81266;DHT22;70748;52.510;13.410;2023-10-19T02:47:16;8.70;71.00
81266;DHT22;70748;52.510;13.410;2023-10-19T02:49:42;8.70;71.00
81266;DHT22;70748;52.510;13.410;2023-10-19T02:52:09;8.80;70.40
81266;DHT22;70748;52.510;13.410;2023-10-19T02:54:38;8.90;70.30
81266;DHT22;70748;52.510;13.410;2023-10-19T02:57:05;8.90;70.10
81266;DHT22;70748;52.510;13.410;2023-10-19T02:59:37;8.80;70.40
81266;DHT22;70748;52.510;13.410;2023-10-19T03:02:04;8.90;70.20
81266;DHT22;70748;52.510;13.410;2023-10-19T03:04:42;8.90;70.40
81266;DHT22;70748;52.510;13.410;2023-10-19T03:07:09;9.00;69.80
81266;DHT22;70748;52.510;13.410;2023-10-19T03:09:38;9.00;69.60
81266;DHT22;70748;52.510;13.410;2023-10-19T03:12:20;9.00;69.50
81266;DHT22;70748;52.510;13.410;2023-10-19T03:14:46;9.00;69.70
81266;DHT22;70748;52.510;13.410;2023-10-19T03:17:13;9.00;70.00
81266;DHT22;70748;52.510;13.410;2023-10-19T03:19:39;9.00;69.90
81266;DHT22;70748;52.510;13.410;2023-10-19T03:22:05;9.00;69.70
81266;DHT22;70748;52.510;13.410;2023-10-19T03:24:34;9.10;69.50
81266;DHT22;70748;52.510;13.410;2023-10-19T03:27:13;9.10;69.20
81266;DHT22;70748;52.510;13.410;2023-10-19T03:29:45;9.10;69.80
81266;DHT22;70748;52.510;13.410;2023-10-19T03:32:12;8.90;69.70
81266;DHT22;70748;52.510;13.410;2023-10-19T03:34:38;9.00;69.90
81266;DHT22;70748;52.510;13.410;2023-10-19T03:37:04;8.90;69.80
81266;DHT22;70748;52.510;13.410;2023-10-19T03:39:37;8.90;70.20
81266;DHT22;70748;52.510;13.410;2023-10-19T03:42:04;8.90;69.90
81266;DHT22;70748;52.510;13.410;2023-10-19T03:44:33;9.00;69.70
81266;DHT22;70748;52.510;13.410;2023-10-19T03:47:11;9.00;70.10
81266;DHT22;70748;52.510;13.410;2023-10-19T03:49:38;8.90;70.30
81266;DHT22;70748;52.510;13.410;2023-10-19T03:52:05;8.90;70.10
81266;DHT22;70748;52.510;13.410;2023-10-19T03:54:33;8.80;70.30
81266;DHT22;70748;52.510;13.410;2023-10-19T03:57:06;8.70;70.90
81266;DHT22;70748;52.510;13.410;2023-10-19T03:59:37;8.80;70.80
81266;DHT22;70748;52.510;13.410;2023-10-19T04:02:03;8.80;70.80
81266;DHT22;70748;52.510;13.410;2023-10-19T04:04:38;8.90;70.30
81266;DHT22;70748;52.510;13.410;2023-10-19T04:07:13;8.80;71.00
81266;DHT22;70748;52.510;13.410;2023-10-19T04:09:50;8.80;70.60
81266;DHT22;70748;52.510;13.410;2023-10-19T04:12:43;8.70;71.00
81266;DHT22;70748;52.510;13.410;2023-10-19T04:15:10;8.90;70.50
81266;DHT22;70748;52.510;13.410;2023-10-19T04:17:45;8.90;70.20
81266;DHT22;70748;52.510;13.410;2023-10-19T04:20:21;8.90;70.20
81266;DHT22;70748;52.510;13.410;2023-10-19T04:23:05;8.90;70.60
81266;DHT22;70748;52.510;13.410;2023-10-19T04:25:36;8.90;70.30
81266;DHT22;70748;52.510;13.410;2023-10-19T04:28:02;8.90;70.00
81266;DHT22;70748;52.510;13.410;2023-10-19T04:30:28;8.90;70.20
81266;DHT22;70748;52.510;13.410;2023-10-19T04:32:55;8.70;71.10
81266;DHT22;70748;52.510;13.410;2023-10-19T04:35:23;8.70;71.10
81266;DHT22;70748;52.510;13.410;2023-10-19T04:37:53;8.70;70.70
81266;DHT22;70748;52.510;13.410;2023-10-19T04:40:20;8.70;71.30
81266;DHT22;70748;52.510;13.410;2023-10-19T04:42:46;8.60;71.30
81266;DHT22;70748;52.510;13.410;2023-10-19T04:45:12;8.70;71.30
81266;DHT22;70748;52.510;13.410;2023-10-19T04:47:39;8.70;70.90
81266;DHT22;70748;52.510;13.410;2023-10-19T04:50:05;8.70;70.70
81266;DHT22;70748;52.510;13.410;2023-10-19T04:52:32;8.60;71.30
81266;DHT22;70748;52.510;13.410;2023-10-19T04:54:58;8.70;71.30
81266;DHT22;70748;52.510;13.410;2023-10-19T04:57:24;8.70;71.10
81266;DHT22;70748;52.510;13.410;2023-10-19T04:59:51;8.70;70.90
81266;DHT22;70748;52.510;13.410;2023-10-19T05:02:17;8.70;71.10
81266;DHT22;70748;52.510;13.410;2023-10-19T05:04:43;8.70;71.10
81266;DHT22;70748;52.510;13.410;2023-10-19T05:07:09;8.60;71.50
81266;DHT22;70748;52.510;13.410;2023-10-19T05:09:38;8.60;71.70
81266;DHT22;70748;52.510;13.410;2023-10-19T05:12:05;8.60;72.10
81266;DHT22;70748;52.510;13.410;2023-10-19T05:14:35;8.60;71.70
81266;DHT22;70748;52.510;13.410;2023-10-19T05:17:02;8.60;71.70
81266;DHT22;70748;52.510;13.410;2023-10-19T05:19:33;8.50;71.80
81266;DHT22;70748;52.510;13.410;2023-10-19T05:22:01;8.60;71.50
81266;DHT22;70748;52.510;13.410;2023-10-19T05:24:27;8.70;71.30
81266;DHT22;70748;52.510;13.410;2023-10-19T05:26:54;8.70;71.10
81266;DHT22;70748;52.510;13.410;2023-10-19T05:29:20;8.80;71.20
81266;DHT22;70748;52.510;13.410;2023-10-19T05:31:46;8.70;71.30
81266;DHT22;70748;52.510;13.410;2023-10-19T05:34:12;8.50;71.70
81266;DHT22;70748;52.510;13.410;2023-10-19T05:36:37;8.40;72.20
81266;DHT22;70748;52.510;13.410;2023-10-19T05:39:05;8.50;72.00
81266;DHT22;70748;52.510;13.410;2023-10-19T05:41:33;8.60;72.10
81266;DHT22;70748;52.510;13.410;2023-10-19T05:43:59;8.70;71.60
81266;DHT22;70748;52.510;13.410;2023-10-19T05:46:25;8.70;71.80
81266;DHT22;70748;52.510;13.410;2023-10-19T05:48:51;8.50;72.70
81266;DHT22;70748;52.510;13.410;2023-10-19T05:51:19;8.50;72.80
81266;DHT22;70748;52.510;13.410;2023-10-19T05:53:45;8.50;72.70
81266;DHT22;70748;52.510;13.410;2023-10-19T05:56:11;8.40;73.30
81266;DHT22;70748;52.510;13.410;2023-10-19T05:58:36;8.40;72.90
81266;DHT22;70748;52.510;13.410;2023-10-19T06:01:03;8.40;72.70
81266;DHT22;70748;52.510;13.410;2023-10-19T06:03:28;8.40;73.40
81266;DHT22;70748;52.510;13.410;2023-10-19T06:05:59;8.10;74.30
81266;DHT22;70748;52.510;13.410;2023-10-19T06:08:25;8.00;75.20
81266;DHT22;70748;52.510;13.410;2023-10-19T06:10:53;8.00;75.80
81266;DHT22;70748;52.510;13.410;2023-10-19T06:13:20;8.00;76.00
81266;DHT22;70748;52.510;13.410;2023-10-19T06:15:48;8.00;76.00
81266;DHT22;70748;52.510;13.410;2023-10-19T06:18:14;8.00;76.50
81266;DHT22;70748;52.510;13.410;2023-10-19T06:20:44;8.00;75.90
81266;DHT22;70748;52.510;13.410;2023-10-19T06:23:10;8.00;76.00
81266;DHT22;70748;52.510;13.410;2023-10-19T06:25:37;8.00;77.00
81266;DHT22;70748;52.510;13.410;2023-10-19T06:28:04;7.90;76.80
81266;DHT22;70748;52.510;13.410;2023-10-19T06:30:30;7.80;77.70
81266;DHT22;70748;52.510;13.410;2023-10-19T06:33:00;7.70;78.60
81266;DHT22;70748;52.510;13.410;2023-10-19T06:35:32;7.80;78.40
81266;DHT22;70748;52.510;13.410;2023-10-19T06:38:01;7.70;78.50
81266;DHT22;70748;52.510;13.410;2023-10-19T06:40:29;7.50;80.30
81266;DHT22;70748;52.510;13.410;2023-10-19T06:42:57;7.50;80.70
81266;DHT22;70748;52.510;13.410;2023-10-19T06:45:22;7.40;80.90
81266;DHT22;70748;52.510;13.410;2023-10-19T06:47:50;7.50;80.80
81266;DHT22;70748;52.510;13.410;2023-10-19T06:50:20;7.50;80.30
81266;DHT22;70748;52.510;13.410;2023-10-19T06:52:47;7.50;80.70
81266;DHT22;70748;52.510;13.410;2023-10-19T06:55:17;7.40;80.40
81266;DHT22;70748;52.510;13.410;2023-10-19T06:57:49;7.50;80.50
81266;DHT22;70748;52.510;13.410;2023-10-19T07:00:16;7.60;80.40
81266;DHT22;70748;52.510;13.410;2023-10-19T07:02:56;7.60;80.10
81266;DHT22;70748;52.510;13.410;2023-10-19T07:05:22;7.70;79.60
81266;DHT22;70748;52.510;13.410;2023-10-19T07:07:55;7.90;79.10
81266;DHT22;70748;52.510;13.410;2023-10-19T07:10:22;7.90;78.70
81266;DHT22;70748;52.510;13.410;2023-10-19T07:12:52;7.90;79.20
81266;DHT22;70748;52.510;13.410;2023-10-19T07:15:19;7.90;79.60
81266;DHT22;70748;52.510;13.410;2023-10-19T07:17:46;7.90;80.00
81266;DHT22;70748;52.510;13.410;2023-10-19T07:20:14;8.00;78.30
81266;DHT22;70748;52.510;13.410;2023-10-19T07:23:02;8.00;78.40
81266;DHT22;70748;52.510;13.410;2023-10-19T07:25:34;8.10;77.70
81266;DHT22;70748;52.510;13.410;2023-10-19T07:28:11;8.10;78.30
81266;DHT22;70748;52.510;13.410;2023-10-19T07:30:38;8.10;78.30
81266;DHT22;70748;52.510;13.410;2023-10-19T07:33:04;8.10;78.50
81266;DHT22;70748;52.510;13.410;2023-10-19T07:35:34;8.20;78.20
81266;DHT22;70748;52.510;13.410;2023-10-19T07:38:00;8.30;77.70
81266;DHT22;70748;52.510;13.410;2023-10-19T07:40:27;8.30;77.40
81266;DHT22;70748;52.510;13.410;2023-10-19T07:42:53;8.30;77.70
81266;DHT22;70748;52.510;13.410;2023-10-19T07:45:20;8.40;77.60
81266;DHT22;70748;52.510;13.410;2023-10-19T07:47:47;8.40;77.40
81266;DHT22;70748;52.510;13.410;2023-10-19T07:50:13;8.50;77.20
81266;DHT22;70748;52.510;13.410;2023-10-19T07:52:50;8.70;76.30
81266;DHT22;70748;52.510;13.410;2023-10-19T07:55:17;8.70;75.90
81266;DHT22;70748;52.510;13.410;2023-10-19T07:57:43;8.70;76.10
81266;DHT22;70748;52.510;13.410;2023-10-19T08:00:11;8.80;75.20
81266;DHT22;70748;52.510;13.410;2023-10-19T08:02:39;8.90;75.60
81266;DHT22;70748;52.510;13.410;2023-10-19T08:05:07;9.00;74.80
81266;DHT22;70748;52.510;13.410;2023-10-19T08:07:33;9.00;74.60
81266;DHT22;70748;52.510;13.410;2023-10-19T08:10:00;9.10;74.20
81266;DHT22;70748;52.510;13.410;2023-10-19T08:12:27;9.00;74.40
81266;DHT22;70748;52.510;13.410;2023-10-19T08:14:53;8.90;74.90
81266;DHT22;70748;52.510;13.410;2023-10-19T08:17:21;8.90;74.60
81266;DHT22;70748;52.510;13.410;2023-10-19T08:19:47;8.80;74.70
81266;DHT22;70748;52.510;13.410;2023-10-19T08:22:12;8.90;74.90
81266;DHT22;70748;52.510;13.410;2023-10-19T08:24:40;8.90;75.20
81266;DHT22;70748;52.510;13.410;2023-10-19T08:27:09;9.00;74.90
81266;DHT22;70748;52.510;13.410;2023-10-19T08:29:37;9.10;74.10
81266;DHT22;70748;52.510;13.410;2023-10-19T08:32:02;9.00;75.00
81266;DHT22;70748;52.510;13.410;2023-10-19T08:34:28;9.10;74.90
81266;DHT22;70748;52.510;13.410;2023-10-19T08:36:55;9.20;74.90
81266;DHT22;70748;52.510;13.410;2023-10-19T08:39:21;9.30;74.10
81266;DHT22;70748;52.510;13.410;2023-10-19T08:41:50;9.30;73.20
81266;DHT22;70748;52.510;13.410;2023-10-19T08:44:19;9.20;73.80
81266;DHT22;70748;52.510;13.410;2023-10-19T08:46:45;9.20;74.80
81266;DHT22;70748;52.510;13.410;2023-10-19T08:49:14;9.30;73.80
81266;DHT22;70748;52.510;13.410;2023-10-19T08:51:43;9.60;73.10
81266;DHT22;70748;52.510;13.410;2023-10-19T08:54:13;9.50;73.00
81266;DHT22;70748;52.510;13.410;2023-10-19T08:56:40;9.60;72.80
81266;DHT22;70748;52.510;13.410;2023-10-19T08:59:07;9.70;72.70
81266;DHT22;70748;52.510;13.410;2023-10-19T09:01:33;9.70;72.30
81266;DHT22;70748;52.510;13.410;2023-10-19T09:04:01;9.70;72.30
81266;DHT22;70748;52.510;13.410;2023-10-19T09:06:27;9.80;72.00
81266;DHT22;70748;52.510;13.410;2023-10-19T09:08:55;9.80;71.90
81266;DHT22;70748;52.510;13.410;2023-10-19T09:11:21;9.80;73.00
81266;DHT22;70748;52.510;13.410;2023-10-19T09:13:51;10.00;72.00
81266;DHT22;70748;52.510;13.410;2023-10-19T09:16:19;10.10;71.70
81266;DHT22;70748;52.510;13.410;2023-10-19T09:18:51;10.30;71.00
81266;DHT22;70748;52.510;13.410;2023-10-19T09:21:20;10.30;71.30
81266;DHT22;70748;52.510;13.410;2023-10-19T09:23:55;10.30;71.00
81266;DHT22;70748;52.510;13.410;2023-10-19T09:26:22;10.20;71.00
81266;DHT22;70748;52.510;13.410;2023-10-19T09:28:52;10.10;71.80
81266;DHT22;70748;52.510;13.410;2023-10-19T09:31:19;9.90;72.80
81266;DHT22;70748;52.510;13.410;2023-10-19T09:33:47;10.10;72.70
81266;DHT22;70748;52.510;13.410;2023-10-19T09:36:14;10.10;72.70
81266;DHT22;70748;52.510;13.410;2023-10-19T09:38:50;10.20;72.20
81266;DHT22;70748;52.510;13.410;2023-10-19T09:41:20;10.20;72.40
81266;DHT22;70748;52.510;13.410;2023-10-19T09:43:50;10.20;72.60
81266;DHT22;70748;52.510;13.410;2023-10-19T09:46:24;10.40;72.20
81266;DHT22;70748;52.510;13.410;2023-10-19T09:48:51;10.50;71.50
81266;DHT22;70748;52.510;13.410;2023-10-19T09:51:18;10.60;71.30
81266;DHT22;70748;52.510;13.410;2023-10-19T09:53:48;10.40;71.60
81266;DHT22;70748;52.510;13.410;2023-10-19T09:56:21;10.30;72.60
81266;DHT22;70748;52.510;13.410;2023-10-19T09:58:56;10.30;73.10
81266;DHT22;70748;52.510;13.410;2023-10-19T10:01:24;10.40;72.70
81266;DHT22;70748;52.510;13.410;2023-10-19T10:03:52;10.20;73.00
81266;DHT22;70748;52.510;13.410;2023-10-19T10:09:18;10.10;73.90
81266;DHT22;70748;52.510;13.410;2023-10-19T10:11:52;10.10;74.20
81266;DHT22;70748;52.510;13.410;2023-10-19T10:14:23;10.00;74.50
81266;DHT22;70748;52.510;13.410;2023-10-19T10:17:04;10.20;74.20
81266;DHT22;70748;52.510;13.410;2023-10-19T10:19:35;10.20;74.30
81266;DHT22;70748;52.510;13.410;2023-10-19T10:22:07;10.00;75.20
81266;DHT22;70748;52.510;13.410;2023-10-19T10:24:43;10.00;75.30
81266;DHT22;70748;52.510;13.410;2023-10-19T10:27:09;10.00;75.40
81266;DHT22;70748;52.510;13.410;2023-10-19T10:29:54;10.10;75.10
81266;DHT22;70748;52.510;13.410;2023-10-19T10:32:45;10.20;75.50
81266;DHT22;70748;52.510;13.410;2023-10-19T10:38:08;10.10;77.80
81266;DHT22;70748;52.510;13.410;2023-10-19T10:40:44;9.90;78.60
81266;DHT22;70748;52.510;13.410;2023-10-19T10:43:11;9.80;79.80
81266;DHT22;70748;52.510;13.410;2023-10-19T10:45:37;9.70;80.40
81266;DHT22;70748;52.510;13.410;2023-10-19T10:48:02;9.70;80.60
81266;DHT22;70748;52.510;13.410;2023-10-19T10:50:29;9.70;81.10
81266;DHT22;70748;52.510;13.410;2023-10-19T10:52:55;9.70;81.30
81266;DHT22;70748;52.510;13.410;2023-10-19T10:55:24;9.60;81.50
81266;DHT22;70748;52.510;13.410;2023-10-19T10:57:54;9.70;80.30
81266;DHT22;70748;52.510;13.410;2023-10-19T11:00:20;9.60;81.10
81266;DHT22;70748;52.510;13.410;2023-10-19T11:03:02;9.50;81.10
81266;DHT22;70748;52.510;13.410;2023-10-19T11:05:30;9.50;80.90
81266;DHT22;70748;52.510;13.410;2023-10-19T11:08:14;9.50;80.80
81266;DHT22;70748;52.510;13.410;2023-10-19T11:10:42;9.60;80.50
81266;DHT22;70748;52.510;13.410;2023-10-19T11:13:10;9.50;80.30
81266;DHT22;70748;52.510;13.410;2023-10-19T11:15:37;9.50;80.60
81266;DHT22;70748;52.510;13.410;2023-10-19T11:18:05;9.40;80.70
81266;DHT22;70748;52.510;13.410;2023-10-19T11:20:33;9.20;82.30
81266;DHT22;70748;52.510;13.410;2023-10-19T11:22:58;9.20;82.30
81266;DHT22;70748;52.510;13.410;2023-10-19T11:25:29;9.30;82.00
81266;DHT22;70748;52.510;13.410;2023-10-19T11:27:59;9.30;82.30
81266;DHT22;70748;52.510;13.410;2023-10-19T11:32:54;9.10;83.20
81266;DHT22;70748;52.510;13.410;2023-10-19T11:35:30;9.10;83.20
81266;DHT22;70748;52.510;13.410;2023-10-19T11:37:58;9.00;84.30
81266;DHT22;70748;52.510;13.410;2023-10-19T11:40:28;9.00;84.60
81266;DHT22;70748;52.510;13.410;2023-10-19T11:42:54;9.10;84.30
81266;DHT22;70748;52.510;13.410;2023-10-19T11:45:25;9.10;84.50
81266;DHT22;70748;52.510;13.410;2023-10-19T11:47:52;9.20;84.10
81266;DHT22;70748;52.510;13.410;2023-10-19T11:50:18;9.20;83.80
81266;DHT22;70748;52.510;13.410;2023-10-19T11:52:45;9.20;84.60
81266;DHT22;70748;52.510;13.410;2023-10-19T11:55:12;9.20;84.40
81266;DHT22;70748;52.510;13.410;2023-10-19T11:57:43;9.00;85.50
81266;DHT22;70748;52.510;13.410;2023-10-19T12:00:10;9.00;85.50
81266;DHT22;70748;52.510;13.410;2023-10-19T12:02:39;9.00;86.00
81266;DHT22;70748;52.510;13.410;2023-10-19T12:05:07;9.00;85.90
81266;DHT22;70748;52.510;13.410;2023-10-19T12:07:36;8.90;86.50
81266;DHT22;70748;52.510;13.410;2023-10-19T12:10:03;8.90;86.90
81266;DHT22;70748;52.510;13.410;2023-10-19T12:12:29;9.00;86.70
81266;DHT22;70748;52.510;13.410;2023-10-19T12:14:54;9.10;85.70
81266;DHT22;70748;52.510;13.410;2023-10-19T12:17:20;9.20;85.60
81266;DHT22;70748;52.510;13.410;2023-10-19T12:19:47;9.10;86.20
81266;DHT22;70748;52.510;13.410;2023-10-19T12:22:13;9.10;86.30
81266;DHT22;70748;52.510;13.410;2023-10-19T12:24:39;9.00;86.20
81266;DHT22;70748;52.510;13.410;2023-10-19T12:27:04;9.10;86.50
81266;DHT22;70748;52.510;13.410;2023-10-19T12:29:30;9.10;86.30
81266;DHT22;70748;52.510;13.410;2023-10-19T12:31:57;9.10;86.80
81266;DHT22;70748;52.510;13.410;2023-10-19T12:34:23;9.10;86.80
81266;DHT22;70748;52.510;13.410;2023-10-19T12:36:48;9.20;87.10
81266;DHT22;70748;52.510;13.410;2023-10-19T12:39:16;9.20;86.90
81266;DHT22;70748;52.510;13.410;2023-10-19T12:42:01;9.20;87.30
81266;DHT22;70748;52.510;13.410;2023-10-19T12:44:27;9.20;87.00
81266;DHT22;70748;52.510;13.410;2023-10-19T12:46:55;9.20;87.10
81266;DHT22;70748;52.510;13.410;2023-10-19T12:49:22;9.20;87.20
81266;DHT22;70748;52.510;13.410;2023-10-19T12:51:52;9.30;86.70
81266;DHT22;70748;52.510;13.410;2023-10-19T12:54:18;9.20;86.70
81266;DHT22;70748;52.510;13.410;2023-10-19T12:56:43;9.30;86.60
81266;DHT22;70748;52.510;13.410;2023-10-19T12:59:09;9.30;86.40
81266;DHT22;70748;52.510;13.410;2023-10-19T13:01:35;9.30;86.60
81266;DHT22;70748;52.510;13.410;2023-10-19T13:04:01;9.20;86.90
81266;DHT22;70748;52.510;13.410;2023-10-19T13:06:39;9.20;87.30
81266;DHT22;70748;52.510;13.410;2023-10-19T13:09:05;9.20;86.70
81266;DHT22;70748;52.510;13.410;2023-10-19T13:11:34;9.10;87.90
81266;DHT22;70748;52.510;13.410;2023-10-19T13:14:00;9.10;87.30
81266;DHT22;70748;52.510;13.410;2023-10-19T13:16:26;9.10;87.00
81266;DHT22;70748;52.510;13.410;2023-10-19T13:18:53;9.00;87.40
81266;DHT22;70748;52.510;13.410;2023-10-19T13:21:19;8.80;87.80
81266;DHT22;70748;52.510;13.410;2023-10-19T13:23:51;8.90;88.10
81266;DHT22;70748;52.510;13.410;2023-10-19T13:26:17;9.00;87.10
81266;DHT22;70748;52.510;13.410;2023-10-19T13:28:44;8.90;87.20
81266;DHT22;70748;52.510;13.410;2023-10-19T13:31:09;8.90;87.30
81266;DHT22;70748;52.510;13.410;2023-10-19T13:33:36;8.90;87.40
81266;DHT22;70748;52.510;13.410;2023-10-19T13:36:02;8.70;88.30
81266;DHT22;70748;52.510;13.410;2023-10-19T13:38:27;8.70;88.60
81266;DHT22;70748;52.510;13.410;2023-10-19T13:40:54;8.70;88.10
81266;DHT22;70748;52.510;13.410;2023-10-19T13:43:19;8.80;87.80
81266;DHT22;70748;52.510;13.410;2023-10-19T13:45:47;8.90;87.40
81266;DHT22;70748;52.510;13.410;2023-10-19T13:48:14;9.00;87.40
81266;DHT22;70748;52.510;13.410;2023-10-19T13:50:47;8.90;87.40
81266;DHT22;70748;52.510;13.410;2023-10-19T13:53:18;8.90;87.80
81266;DHT22;70748;52.510;13.410;2023-10-19T13:55:44;8.90;88.10
81266;DHT22;70748;52.510;13.410;2023-10-19T13:58:10;8.90;87.70
81266;DHT22;70748;52.510;13.410;2023-10-19T14:00:36;9.00;87.20
81266;DHT22;70748;52.510;13.410;2023-10-19T14:03:05;8.90;87.40
81266;DHT22;70748;52.510;13.410;2023-10-19T14:05:44;9.10;87.20
81266;DHT22;70748;52.510;13.410;2023-10-19T14:08:14;9.00;87.20
81266;DHT22;70748;52.510;13.410;2023-10-19T14:10:41;8.90;87.20
81266;DHT22;70748;52.510;13.410;2023-10-19T14:13:10;8.80;88.10
81266;DHT22;70748;52.510;13.410;2023-10-19T14:15:40;9.00;87.30
81266;DHT22;70748;52.510;13.410;2023-10-19T14:18:06;9.00;87.30
81266;DHT22;70748;52.510;13.410;2023-10-19T14:20:32;8.90;87.40
81266;DHT22;70748;52.510;13.410;2023-10-19T14:22:59;8.90;86.90
81266;DHT22;70748;52.510;13.410;2023-10-19T14:25:25;8.90;87.40
81266;DHT22;70748;52.510;13.410;2023-10-19T14:27:54;8.90;87.40
81266;DHT22;70748;52.510;13.410;2023-10-19T14:30:25;8.90;87.40
81266;DHT22;70748;52.510;13.410;2023-10-19T14:32:51;8.90;87.70
81266;DHT22;70748;52.510;13.410;2023-10-19T14:35:18;8.90;87.80
81266;DHT22;70748;52.510;13.410;2023-10-19T14:37:46;8.90;88.20
81266;DHT22;70748;52.510;13.410;2023-10-19T14:40:17;9.00;87.70
81266;DHT22;70748;52.510;13.410;2023-10-19T14:42:46;8.90;87.80
81266;DHT22;70748;52.510;13.410;2023-10-19T14:45:17;8.80;88.40
81266;DHT22;70748;52.510;13.410;2023-10-19T14:47:49;8.90;88.20
81266;DHT22;70748;52.510;13.410;2023-10-19T14:50:18;8.90;87.90
81266;DHT22;70748;52.510;13.410;2023-10-19T14:52:46;9.00;87.70
81266;DHT22;70748;52.510;13.410;2023-10-19T14:55:12;9.00;86.60
81266;DHT22;70748;52.510;13.410;2023-10-19T14:57:40;8.90;87.00
81266;DHT22;70748;52.510;13.410;2023-10-19T15:00:09;8.90;87.50
81266;DHT22;70748;52.510;13.410;2023-10-19T15:02:50;8.90;87.70
81266;DHT22;70748;52.510;13.410;2023-10-19T15:05:17;9.00;87.50
81266;DHT22;70748;52.510;13.410;2023-10-19T15:07:45;8.90;87.40
81266;DHT22;70748;52.510;13.410;2023-10-19T15:10:12;8.90;87.80
81266;DHT22;70748;52.510;13.410;2023-10-19T15:12:41;8.90;87.50
81266;DHT22;70748;52.510;13.410;2023-10-19T15:15:08;8.90;87.90
81266;DHT22;70748;52.510;13.410;2023-10-19T15:17:37;9.00;88.00
81266;DHT22;70748;52.510;13.410;2023-10-19T15:20:05;8.90;87.90
81266;DHT22;70748;52.510;13.410;2023-10-19T15:22:32;8.90;88.00
81266;DHT22;70748;52.510;13.410;2023-10-19T15:24:58;8.90;88.20
81266;DHT22;70748;52.510;13.410;2023-10-19T15:27:24;8.90;87.80
81266;DHT22;70748;52.510;13.410;2023-10-19T15:29:49;8.90;88.10
81266;DHT22;70748;52.510;13.410;2023-10-19T15:32:15;8.90;88.60
81266;DHT22;70748;52.510;13.410;2023-10-19T15:34:41;8.90;88.50
81266;DHT22;70748;52.510;13.410;2023-10-19T15:37:07;8.80;88.70
81266;DHT22;70748;52.510;13.410;2023-10-19T15:39:32;8.70;89.10
81266;DHT22;70748;52.510;13.410;2023-10-19T15:41:58;8.90;88.70
81266;DHT22;70748;52.510;13.410;2023-10-19T15:44:25;8.90;88.80
81266;DHT22;70748;52.510;13.410;2023-10-19T15:46:51;8.90;88.70
81266;DHT22;70748;52.510;13.410;2023-10-19T15:49:18;9.00;88.50